This is the latest recevied weather packets stored in our database for station/object IU1VDW-13. If no packets are shown the sender has not sent any weather packets the latest 10 day(s).
| Time | Temp. | Humidity | Pressure | Rain* | Wind** | Luminosity | Snow |
|---|---|---|---|---|---|---|---|
| 1777729745 | 21.11° C | 48% | 1022.8 hPa | - | - | - | - |
| 1777727348 | 20.56° C | 50% | 1023.4 hPa | - | - | - | - |
| 1777724950 | 20.56° C | 50% | 1024 hPa | - | - | - | - |
| 1777722552 | 20.56° C | 52% | 1024.7 hPa | - | - | - | - |
| 1777720155 | 20.56° C | 51% | 1025.5 hPa | - | - | - | - |
| 1777717758 | 20° C | 52% | 1026 hPa | - | - | - | - |
| 1777715361 | 20.56° C | 55% | 1026.7 hPa | - | - | - | - |
| 1777712964 | 20.56° C | 59% | 1027.1 hPa | - | - | - | - |
| 1777710567 | 20.56° C | 62% | 1027.4 hPa | - | - | - | - |
| 1777708169 | 20.56° C | 62% | 1027.6 hPa | - | - | - | - |
| 1777705772 | 20.56° C | 63% | 1027.6 hPa | - | - | - | - |
| 1777703375 | 20.56° C | 62% | 1027.7 hPa | - | - | - | - |
| 1777700978 | 20.56° C | 62% | 1027.7 hPa | - | - | - | - |
| 1777698581 | 20.56° C | 62% | 1027.5 hPa | - | - | - | - |
| 1777696184 | 20.56° C | 62% | 1027.3 hPa | - | - | - | - |
| 1777693786 | 21.11° C | 62% | 1027.2 hPa | - | - | - | - |
| 1777691388 | 21.11° C | 62% | 1027.3 hPa | - | - | - | - |
| 1777688991 | 21.11° C | 62% | 1027.2 hPa | - | - | - | - |
| 1777686595 | 21.11° C | 61% | 1027.1 hPa | - | - | - | - |
| 1777684198 | 21.11° C | 61% | 1027 hPa | - | - | - | - |
| 1777681801 | 21.67° C | 61% | 1027 hPa | - | - | - | - |
| 1777679404 | 21.67° C | 60% | 1027 hPa | - | - | - | - |
| 1777677007 | 21.67° C | 60% | 1026.9 hPa | - | - | - | - |
| 1777674610 | 23.33° C | 57% | 1026.7 hPa | - | - | - | - |
| 1777672214 | 22.78° C | 58% | 1026.7 hPa | - | - | - | - |
* Rain since midnight (hover to see other rain measurements)
** Current wind speed in m/s (hover to see current wind gust speed)